sensor_id;sensor_type;location;lat;lon;timestamp;P1;durP1;ratioP1;P2;durP2;ratioP2
13704;SDS011;6924;52.122;9.952;2023-05-07T00:00:04;15.90;;;11.77;;
13704;SDS011;6924;52.122;9.952;2023-05-07T00:02:32;13.60;;;10.33;;
13704;SDS011;6924;52.122;9.952;2023-05-07T00:05:00;13.97;;;11.73;;
13704;SDS011;6924;52.122;9.952;2023-05-07T00:07:27;12.17;;;10.87;;
13704;SDS011;6924;52.122;9.952;2023-05-07T00:09:53;13.33;;;11.30;;
13704;SDS011;6924;52.122;9.952;2023-05-07T00:12:20;13.13;;;11.77;;
13704;SDS011;6924;52.122;9.952;2023-05-07T00:14:46;15.23;;;11.57;;
13704;SDS011;6924;52.122;9.952;2023-05-07T00:17:13;14.63;;;11.77;;
13704;SDS011;6924;52.122;9.952;2023-05-07T00:19:39;11.67;;;10.47;;
13704;SDS011;6924;52.122;9.952;2023-05-07T00:22:08;15.27;;;11.07;;
13704;SDS011;6924;52.122;9.952;2023-05-07T00:24:35;15.20;;;13.10;;
13704;SDS011;6924;52.122;9.952;2023-05-07T00:27:01;16.27;;;11.63;;
13704;SDS011;6924;52.122;9.952;2023-05-07T00:29:28;14.73;;;11.77;;
13704;SDS011;6924;52.122;9.952;2023-05-07T00:31:54;13.37;;;11.37;;
13704;SDS011;6924;52.122;9.952;2023-05-07T00:34:20;13.33;;;11.93;;
13704;SDS011;6924;52.122;9.952;2023-05-07T00:36:47;15.93;;;11.30;;
13704;SDS011;6924;52.122;9.952;2023-05-07T00:39:15;16.67;;;12.20;;
13704;SDS011;6924;52.122;9.952;2023-05-07T00:41:41;11.93;;;10.70;;
13704;SDS011;6924;52.122;9.952;2023-05-07T00:44:07;15.47;;;11.97;;
13704;SDS011;6924;52.122;9.952;2023-05-07T00:46:34;14.57;;;12.60;;
13704;SDS011;6924;52.122;9.952;2023-05-07T00:49:00;12.77;;;11.13;;
13704;SDS011;6924;52.122;9.952;2023-05-07T00:51:27;13.37;;;11.67;;
13704;SDS011;6924;52.122;9.952;2023-05-07T00:53:54;13.23;;;11.83;;
13704;SDS011;6924;52.122;9.952;2023-05-07T00:56:22;16.20;;;13.17;;
13704;SDS011;6924;52.122;9.952;2023-05-07T00:58:49;15.17;;;12.43;;
13704;SDS011;6924;52.122;9.952;2023-05-07T01:01:16;13.97;;;11.30;;
13704;SDS011;6924;52.122;9.952;2023-05-07T01:03:42;13.23;;;11.70;;
13704;SDS011;6924;52.122;9.952;2023-05-07T01:06:09;13.80;;;11.43;;
13704;SDS011;6924;52.122;9.952;2023-05-07T01:08:37;13.23;;;10.83;;
13704;SDS011;6924;52.122;9.952;2023-05-07T01:11:05;12.00;;;10.57;;
13704;SDS011;6924;52.122;9.952;2023-05-07T01:13:34;12.37;;;11.07;;
13704;SDS011;6924;52.122;9.952;2023-05-07T01:16:01;11.37;;;10.17;;
13704;SDS011;6924;52.122;9.952;2023-05-07T01:18:28;18.93;;;9.93;;
13704;SDS011;6924;52.122;9.952;2023-05-07T01:20:55;13.67;;;10.73;;
13704;SDS011;6924;52.122;9.952;2023-05-07T01:23:25;14.30;;;9.80;;
13704;SDS011;6924;52.122;9.952;2023-05-07T01:25:53;12.47;;;9.67;;
13704;SDS011;6924;52.122;9.952;2023-05-07T01:28:20;12.17;;;10.73;;
13704;SDS011;6924;52.122;9.952;2023-05-07T01:30:49;12.40;;;10.53;;
13704;SDS011;6924;52.122;9.952;2023-05-07T01:33:18;12.60;;;9.70;;
13704;SDS011;6924;52.122;9.952;2023-05-07T01:35:48;10.70;;;9.10;;
13704;SDS011;6924;52.122;9.952;2023-05-07T01:38:16;11.37;;;10.10;;
13704;SDS011;6924;52.122;9.952;2023-05-07T01:40:45;11.10;;;9.70;;
13704;SDS011;6924;52.122;9.952;2023-05-07T01:43:11;10.03;;;9.03;;
13704;SDS011;6924;52.122;9.952;2023-05-07T01:45:38;12.33;;;9.53;;
13704;SDS011;6924;52.122;9.952;2023-05-07T01:48:06;11.27;;;9.60;;
13704;SDS011;6924;52.122;9.952;2023-05-07T01:50:33;10.27;;;7.80;;
13704;SDS011;6924;52.122;9.952;2023-05-07T01:52:59;10.20;;;9.13;;
13704;SDS011;6924;52.122;9.952;2023-05-07T01:55:27;13.10;;;9.80;;
13704;SDS011;6924;52.122;9.952;2023-05-07T01:57:55;11.03;;;8.67;;
13704;SDS011;6924;52.122;9.952;2023-05-07T02:00:21;13.33;;;9.43;;
13704;SDS011;6924;52.122;9.952;2023-05-07T02:02:48;10.63;;;8.67;;
13704;SDS011;6924;52.122;9.952;2023-05-07T02:05:15;10.33;;;9.20;;
13704;SDS011;6924;52.122;9.952;2023-05-07T02:07:41;9.50;;;8.37;;
13704;SDS011;6924;52.122;9.952;2023-05-07T02:10:08;9.37;;;8.37;;
13704;SDS011;6924;52.122;9.952;2023-05-07T02:12:34;10.97;;;9.03;;
13704;SDS011;6924;52.122;9.952;2023-05-07T02:15:02;8.83;;;8.03;;
13704;SDS011;6924;52.122;9.952;2023-05-07T02:17:30;9.57;;;8.33;;
13704;SDS011;6924;52.122;9.952;2023-05-07T02:19:58;9.53;;;6.97;;
13704;SDS011;6924;52.122;9.952;2023-05-07T02:22:24;8.93;;;8.07;;
13704;SDS011;6924;52.122;9.952;2023-05-07T02:24:51;9.10;;;7.37;;
13704;SDS011;6924;52.122;9.952;2023-05-07T02:27:17;10.33;;;6.90;;
13704;SDS011;6924;52.122;9.952;2023-05-07T02:29:44;8.60;;;7.80;;
13704;SDS011;6924;52.122;9.952;2023-05-07T02:32:11;8.73;;;7.80;;
13704;SDS011;6924;52.122;9.952;2023-05-07T02:34:38;7.63;;;6.90;;
13704;SDS011;6924;52.122;9.952;2023-05-07T02:37:04;8.03;;;7.10;;
13704;SDS011;6924;52.122;9.952;2023-05-07T02:39:30;7.90;;;6.93;;
13704;SDS011;6924;52.122;9.952;2023-05-07T02:41:57;8.03;;;7.20;;
13704;SDS011;6924;52.122;9.952;2023-05-07T02:44:23;7.70;;;6.90;;
13704;SDS011;6924;52.122;9.952;2023-05-07T02:46:50;7.80;;;6.77;;
13704;SDS011;6924;52.122;9.952;2023-05-07T02:49:17;6.40;;;5.80;;
13704;SDS011;6924;52.122;9.952;2023-05-07T02:51:44;7.37;;;6.67;;
13704;SDS011;6924;52.122;9.952;2023-05-07T02:54:11;6.83;;;6.20;;
13704;SDS011;6924;52.122;9.952;2023-05-07T02:56:37;7.50;;;6.80;;
13704;SDS011;6924;52.122;9.952;2023-05-07T02:59:03;16.10;;;6.80;;
13704;SDS011;6924;52.122;9.952;2023-05-07T03:01:30;6.43;;;5.83;;
13704;SDS011;6924;52.122;9.952;2023-05-07T03:03:56;7.83;;;7.03;;
13704;SDS011;6924;52.122;9.952;2023-05-07T03:06:24;7.20;;;6.50;;
13704;SDS011;6924;52.122;9.952;2023-05-07T03:08:51;8.57;;;7.80;;
13704;SDS011;6924;52.122;9.952;2023-05-07T03:11:17;7.77;;;7.07;;
13704;SDS011;6924;52.122;9.952;2023-05-07T03:13:44;7.17;;;6.47;;
13704;SDS011;6924;52.122;9.952;2023-05-07T03:16:11;7.53;;;6.83;;
13704;SDS011;6924;52.122;9.952;2023-05-07T03:18:37;7.13;;;6.43;;
13704;SDS011;6924;52.122;9.952;2023-05-07T03:21:03;7.67;;;6.97;;
13704;SDS011;6924;52.122;9.952;2023-05-07T03:23:31;7.80;;;7.00;;
13704;SDS011;6924;52.122;9.952;2023-05-07T03:25:58;8.27;;;7.37;;
13704;SDS011;6924;52.122;9.952;2023-05-07T03:28:24;7.00;;;6.17;;
13704;SDS011;6924;52.122;9.952;2023-05-07T03:30:50;8.57;;;7.73;;
13704;SDS011;6924;52.122;9.952;2023-05-07T03:33:17;7.43;;;6.33;;
13704;SDS011;6924;52.122;9.952;2023-05-07T03:35:43;7.77;;;6.97;;
13704;SDS011;6924;52.122;9.952;2023-05-07T03:38:09;7.30;;;6.60;;
13704;SDS011;6924;52.122;9.952;2023-05-07T03:40:37;7.27;;;6.57;;
13704;SDS011;6924;52.122;9.952;2023-05-07T03:43:04;7.80;;;7.10;;
13704;SDS011;6924;52.122;9.952;2023-05-07T03:45:30;7.47;;;6.63;;
13704;SDS011;6924;52.122;9.952;2023-05-07T03:47:57;9.70;;;7.20;;
13704;SDS011;6924;52.122;9.952;2023-05-07T03:50:23;7.97;;;7.03;;
13704;SDS011;6924;52.122;9.952;2023-05-07T03:52:50;7.13;;;6.43;;
13704;SDS011;6924;52.122;9.952;2023-05-07T03:55:16;7.77;;;6.97;;
13704;SDS011;6924;52.122;9.952;2023-05-07T03:57:44;6.43;;;5.83;;
13704;SDS011;6924;52.122;9.952;2023-05-07T04:00:11;6.77;;;6.17;;
13704;SDS011;6924;52.122;9.952;2023-05-07T04:02:39;8.13;;;5.93;;
13704;SDS011;6924;52.122;9.952;2023-05-07T04:05:05;7.80;;;6.33;;
13704;SDS011;6924;52.122;9.952;2023-05-07T04:07:32;7.13;;;5.80;;
13704;SDS011;6924;52.122;9.952;2023-05-07T04:09:58;7.17;;;6.47;;
13704;SDS011;6924;52.122;9.952;2023-05-07T04:12:25;6.53;;;5.93;;
13704;SDS011;6924;52.122;9.952;2023-05-07T04:14:52;6.40;;;5.90;;
13704;SDS011;6924;52.122;9.952;2023-05-07T04:17:19;6.40;;;5.70;;
13704;SDS011;6924;52.122;9.952;2023-05-07T04:19:45;8.30;;;7.50;;
13704;SDS011;6924;52.122;9.952;2023-05-07T04:22:11;7.17;;;6.43;;
13704;SDS011;6924;52.122;9.952;2023-05-07T04:24:38;6.83;;;6.13;;
13704;SDS011;6924;52.122;9.952;2023-05-07T04:27:04;6.77;;;6.07;;
13704;SDS011;6924;52.122;9.952;2023-05-07T04:29:31;7.63;;;6.83;;
13704;SDS011;6924;52.122;9.952;2023-05-07T04:31:59;6.83;;;6.13;;
13704;SDS011;6924;52.122;9.952;2023-05-07T04:34:25;5.60;;;5.07;;
13704;SDS011;6924;52.122;9.952;2023-05-07T04:36:52;7.03;;;6.33;;
13704;SDS011;6924;52.122;9.952;2023-05-07T04:39:18;6.50;;;5.83;;
13704;SDS011;6924;52.122;9.952;2023-05-07T04:41:45;6.57;;;5.50;;
13704;SDS011;6924;52.122;9.952;2023-05-07T04:44:11;6.97;;;6.27;;
13704;SDS011;6924;52.122;9.952;2023-05-07T04:46:37;6.80;;;6.00;;
13704;SDS011;6924;52.122;9.952;2023-05-07T04:49:05;6.73;;;6.03;;
13704;SDS011;6924;52.122;9.952;2023-05-07T04:51:31;6.47;;;5.37;;
13704;SDS011;6924;52.122;9.952;2023-05-07T04:53:58;7.57;;;6.10;;
13704;SDS011;6924;52.122;9.952;2023-05-07T04:56:27;6.30;;;5.70;;
13704;SDS011;6924;52.122;9.952;2023-05-07T04:58:53;7.37;;;6.27;;
13704;SDS011;6924;52.122;9.952;2023-05-07T05:01:20;7.17;;;6.47;;
13704;SDS011;6924;52.122;9.952;2023-05-07T05:03:46;7.07;;;5.83;;
13704;SDS011;6924;52.122;9.952;2023-05-07T05:06:14;5.83;;;5.33;;
13704;SDS011;6924;52.122;9.952;2023-05-07T05:08:40;7.03;;;6.03;;
13704;SDS011;6924;52.122;9.952;2023-05-07T05:11:07;7.00;;;6.07;;
13704;SDS011;6924;52.122;9.952;2023-05-07T05:13:33;6.47;;;5.73;;
13704;SDS011;6924;52.122;9.952;2023-05-07T05:16:00;5.90;;;5.03;;
13704;SDS011;6924;52.122;9.952;2023-05-07T05:18:26;6.33;;;5.33;;
13704;SDS011;6924;52.122;9.952;2023-05-07T05:20:52;6.17;;;5.57;;
13704;SDS011;6924;52.122;9.952;2023-05-07T05:23:20;5.33;;;4.83;;
13704;SDS011;6924;52.122;9.952;2023-05-07T05:25:47;6.00;;;5.40;;
13704;SDS011;6924;52.122;9.952;2023-05-07T05:28:13;6.43;;;5.87;;
13704;SDS011;6924;52.122;9.952;2023-05-07T05:30:39;5.43;;;4.87;;
13704;SDS011;6924;52.122;9.952;2023-05-07T05:33:06;6.77;;;5.37;;
13704;SDS011;6924;52.122;9.952;2023-05-07T05:35:32;6.03;;;5.37;;
13704;SDS011;6924;52.122;9.952;2023-05-07T05:38:00;6.47;;;4.73;;
13704;SDS011;6924;52.122;9.952;2023-05-07T05:40:28;5.03;;;4.47;;
13704;SDS011;6924;52.122;9.952;2023-05-07T05:42:54;5.93;;;5.13;;
13704;SDS011;6924;52.122;9.952;2023-05-07T05:45:21;6.17;;;5.40;;
13704;SDS011;6924;52.122;9.952;2023-05-07T05:47:47;5.33;;;4.83;;
13704;SDS011;6924;52.122;9.952;2023-05-07T05:50:13;5.53;;;5.03;;
13704;SDS011;6924;52.122;9.952;2023-05-07T05:52:40;5.30;;;4.80;;
13704;SDS011;6924;52.122;9.952;2023-05-07T05:55:07;5.30;;;4.73;;
13704;SDS011;6924;52.122;9.952;2023-05-07T05:57:35;5.03;;;4.57;;
13704;SDS011;6924;52.122;9.952;2023-05-07T06:00:02;6.10;;;4.80;;
13704;SDS011;6924;52.122;9.952;2023-05-07T06:02:30;6.60;;;5.33;;
13704;SDS011;6924;52.122;9.952;2023-05-07T06:04:56;5.43;;;4.93;;
13704;SDS011;6924;52.122;9.952;2023-05-07T06:07:23;6.10;;;5.10;;
13704;SDS011;6924;52.122;9.952;2023-05-07T06:09:49;5.73;;;5.17;;
13704;SDS011;6924;52.122;9.952;2023-05-07T06:12:15;5.27;;;4.77;;
13704;SDS011;6924;52.122;9.952;2023-05-07T06:14:43;5.33;;;4.83;;
13704;SDS011;6924;52.122;9.952;2023-05-07T06:17:10;5.77;;;5.17;;
13704;SDS011;6924;52.122;9.952;2023-05-07T06:19:36;4.77;;;4.37;;
13704;SDS011;6924;52.122;9.952;2023-05-07T06:22:02;4.97;;;4.43;;
13704;SDS011;6924;52.122;9.952;2023-05-07T06:24:29;4.43;;;4.00;;
13704;SDS011;6924;52.122;9.952;2023-05-07T06:26:55;5.00;;;4.50;;
13704;SDS011;6924;52.122;9.952;2023-05-07T06:29:23;5.47;;;4.80;;
13704;SDS011;6924;52.122;9.952;2023-05-07T06:31:52;4.57;;;4.10;;
13704;SDS011;6924;52.122;9.952;2023-05-07T06:34:18;4.90;;;4.40;;
13704;SDS011;6924;52.122;9.952;2023-05-07T06:36:44;4.33;;;3.93;;
13704;SDS011;6924;52.122;9.952;2023-05-07T06:39:11;5.47;;;4.03;;
13704;SDS011;6924;52.122;9.952;2023-05-07T06:41:37;4.10;;;3.60;;
13704;SDS011;6924;52.122;9.952;2023-05-07T06:44:04;4.47;;;4.07;;
13704;SDS011;6924;52.122;9.952;2023-05-07T06:46:30;5.43;;;4.23;;
13704;SDS011;6924;52.122;9.952;2023-05-07T06:48:58;5.20;;;4.03;;
13704;SDS011;6924;52.122;9.952;2023-05-07T06:51:24;4.20;;;3.80;;
13704;SDS011;6924;52.122;9.952;2023-05-07T06:53:51;4.23;;;3.83;;
13704;SDS011;6924;52.122;9.952;2023-05-07T06:56:18;4.27;;;3.70;;
13704;SDS011;6924;52.122;9.952;2023-05-07T06:58:44;4.43;;;3.63;;
13704;SDS011;6924;52.122;9.952;2023-05-07T07:01:11;4.50;;;3.97;;
13704;SDS011;6924;52.122;9.952;2023-05-07T07:03:37;4.27;;;3.73;;
13704;SDS011;6924;52.122;9.952;2023-05-07T07:06:05;4.43;;;3.93;;
13704;SDS011;6924;52.122;9.952;2023-05-07T07:08:32;4.77;;;4.00;;
13704;SDS011;6924;52.122;9.952;2023-05-07T07:10:59;4.20;;;3.63;;
13704;SDS011;6924;52.122;9.952;2023-05-07T07:13:25;3.80;;;3.40;;
13704;SDS011;6924;52.122;9.952;2023-05-07T07:15:52;3.97;;;3.63;;
13704;SDS011;6924;52.122;9.952;2023-05-07T07:18:18;3.60;;;3.30;;
13704;SDS011;6924;52.122;9.952;2023-05-07T07:20:45;4.30;;;3.57;;
13704;SDS011;6924;52.122;9.952;2023-05-07T07:23:12;3.83;;;3.30;;
13704;SDS011;6924;52.122;9.952;2023-05-07T07:25:39;3.63;;;3.23;;
13704;SDS011;6924;52.122;9.952;2023-05-07T07:28:06;4.30;;;3.67;;
13704;SDS011;6924;52.122;9.952;2023-05-07T07:30:33;4.43;;;4.00;;
13704;SDS011;6924;52.122;9.952;2023-05-07T07:32:59;5.07;;;4.37;;
13704;SDS011;6924;52.122;9.952;2023-05-07T07:35:28;4.07;;;3.67;;
13704;SDS011;6924;52.122;9.952;2023-05-07T07:37:54;4.10;;;3.70;;
13704;SDS011;6924;52.122;9.952;2023-05-07T07:40:22;4.23;;;3.83;;
13704;SDS011;6924;52.122;9.952;2023-05-07T07:42:49;4.17;;;3.77;;
13704;SDS011;6924;52.122;9.952;2023-05-07T07:45:15;4.20;;;3.80;;
13704;SDS011;6924;52.122;9.952;2023-05-07T07:47:41;4.93;;;4.33;;
13704;SDS011;6924;52.122;9.952;2023-05-07T07:50:08;4.60;;;4.20;;
13704;SDS011;6924;52.122;9.952;2023-05-07T07:52:35;4.47;;;4.07;;
13704;SDS011;6924;52.122;9.952;2023-05-07T07:55:02;4.07;;;3.77;;
13704;SDS011;6924;52.122;9.952;2023-05-07T07:57:30;4.33;;;3.97;;
13704;SDS011;6924;52.122;9.952;2023-05-07T07:59:57;4.50;;;4.10;;
13704;SDS011;6924;52.122;9.952;2023-05-07T08:02:23;4.43;;;4.03;;
13704;SDS011;6924;52.122;9.952;2023-05-07T08:04:50;4.90;;;4.47;;
13704;SDS011;6924;52.122;9.952;2023-05-07T08:07:16;5.33;;;4.83;;
13704;SDS011;6924;52.122;9.952;2023-05-07T08:09:45;6.13;;;5.43;;
13704;SDS011;6924;52.122;9.952;2023-05-07T08:12:12;6.30;;;5.70;;
13704;SDS011;6924;52.122;9.952;2023-05-07T08:14:40;6.47;;;5.93;;
13704;SDS011;6924;52.122;9.952;2023-05-07T08:17:06;6.43;;;5.83;;
13704;SDS011;6924;52.122;9.952;2023-05-07T08:19:34;5.53;;;5.03;;
13704;SDS011;6924;52.122;9.952;2023-05-07T08:22:01;5.60;;;5.07;;
13704;SDS011;6924;52.122;9.952;2023-05-07T08:24:29;5.40;;;4.87;;
13704;SDS011;6924;52.122;9.952;2023-05-07T08:26:55;5.07;;;4.57;;
13704;SDS011;6924;52.122;9.952;2023-05-07T08:29:21;6.23;;;5.50;;
13704;SDS011;6924;52.122;9.952;2023-05-07T08:31:49;5.40;;;4.90;;
13704;SDS011;6924;52.122;9.952;2023-05-07T08:34:16;6.10;;;5.17;;
13704;SDS011;6924;52.122;9.952;2023-05-07T08:36:42;5.60;;;5.10;;
13704;SDS011;6924;52.122;9.952;2023-05-07T08:39:08;5.70;;;5.20;;
13704;SDS011;6924;52.122;9.952;2023-05-07T08:41:35;5.37;;;4.63;;
13704;SDS011;6924;52.122;9.952;2023-05-07T08:44:02;7.37;;;5.33;;
13704;SDS011;6924;52.122;9.952;2023-05-07T08:46:32;5.20;;;4.77;;
13704;SDS011;6924;52.122;9.952;2023-05-07T08:49:00;5.60;;;5.03;;
13704;SDS011;6924;52.122;9.952;2023-05-07T08:51:26;5.53;;;5.03;;
13704;SDS011;6924;52.122;9.952;2023-05-07T08:53:53;5.93;;;5.43;;
13704;SDS011;6924;52.122;9.952;2023-05-07T08:56:26;5.60;;;5.10;;
13704;SDS011;6924;52.122;9.952;2023-05-07T08:58:57;4.37;;;3.97;;
13704;SDS011;6924;52.122;9.952;2023-05-07T09:01:23;6.80;;;4.47;;
13704;SDS011;6924;52.122;9.952;2023-05-07T09:03:51;4.97;;;4.57;;
13704;SDS011;6924;52.122;9.952;2023-05-07T09:06:20;5.10;;;4.70;;
13704;SDS011;6924;52.122;9.952;2023-05-07T09:08:49;5.37;;;4.87;;
13704;SDS011;6924;52.122;9.952;2023-05-07T09:11:19;5.20;;;4.70;;
13704;SDS011;6924;52.122;9.952;2023-05-07T09:13:46;4.70;;;4.30;;
13704;SDS011;6924;52.122;9.952;2023-05-07T09:16:13;4.73;;;4.20;;
13704;SDS011;6924;52.122;9.952;2023-05-07T09:18:40;4.93;;;4.47;;
13704;SDS011;6924;52.122;9.952;2023-05-07T09:21:09;4.17;;;3.87;;
13704;SDS011;6924;52.122;9.952;2023-05-07T09:23:37;5.20;;;4.70;;
13704;SDS011;6924;52.122;9.952;2023-05-07T09:26:03;4.60;;;4.17;;
13704;SDS011;6924;52.122;9.952;2023-05-07T09:28:32;4.77;;;4.37;;
13704;SDS011;6924;52.122;9.952;2023-05-07T09:30:58;5.33;;;4.80;;
13704;SDS011;6924;52.122;9.952;2023-05-07T09:33:26;6.03;;;5.43;;
13704;SDS011;6924;52.122;9.952;2023-05-07T09:35:53;4.97;;;4.57;;
13704;SDS011;6924;52.122;9.952;2023-05-07T09:38:20;5.73;;;5.13;;
13704;SDS011;6924;52.122;9.952;2023-05-07T09:40:52;5.30;;;4.80;;
13704;SDS011;6924;52.122;9.952;2023-05-07T09:43:31;6.03;;;5.53;;
13704;SDS011;6924;52.122;9.952;2023-05-07T09:45:58;6.00;;;5.40;;
13704;SDS011;6924;52.122;9.952;2023-05-07T09:48:27;6.63;;;6.00;;
13704;SDS011;6924;52.122;9.952;2023-05-07T09:50:56;7.43;;;6.73;;
13704;SDS011;6924;52.122;9.952;2023-05-07T09:53:27;6.57;;;5.97;;
13704;SDS011;6924;52.122;9.952;2023-05-07T09:55:57;6.53;;;5.93;;
13704;SDS011;6924;52.122;9.952;2023-05-07T09:58:24;6.17;;;5.60;;
13704;SDS011;6924;52.122;9.952;2023-05-07T10:00:52;7.63;;;6.50;;
13704;SDS011;6924;52.122;9.952;2023-05-07T10:03:19;7.00;;;6.50;;
13704;SDS011;6924;52.122;9.952;2023-05-07T10:05:47;6.77;;;6.07;;
13704;SDS011;6924;52.122;9.952;2023-05-07T10:08:14;7.07;;;6.37;;
13704;SDS011;6924;52.122;9.952;2023-05-07T10:10:41;6.60;;;6.03;;
13704;SDS011;6924;52.122;9.952;2023-05-07T10:13:10;7.63;;;6.97;;
13704;SDS011;6924;52.122;9.952;2023-05-07T10:15:36;7.53;;;6.57;;
13704;SDS011;6924;52.122;9.952;2023-05-07T10:18:03;6.67;;;6.07;;
13704;SDS011;6924;52.122;9.952;2023-05-07T10:20:32;7.90;;;6.63;;
13704;SDS011;6924;52.122;9.952;2023-05-07T10:23:00;6.60;;;5.93;;
13704;SDS011;6924;52.122;9.952;2023-05-07T10:25:31;7.33;;;6.63;;
13704;SDS011;6924;52.122;9.952;2023-05-07T10:27:59;6.20;;;5.67;;
13704;SDS011;6924;52.122;9.952;2023-05-07T10:30:34;6.13;;;5.63;;
13704;SDS011;6924;52.122;9.952;2023-05-07T10:33:13;6.40;;;5.80;;
13704;SDS011;6924;52.122;9.952;2023-05-07T10:35:44;6.77;;;6.17;;
13704;SDS011;6924;52.122;9.952;2023-05-07T10:38:12;6.07;;;5.57;;
13704;SDS011;6924;52.122;9.952;2023-05-07T10:40:39;6.47;;;5.87;;
13704;SDS011;6924;52.122;9.952;2023-05-07T10:43:06;6.73;;;6.10;;
13704;SDS011;6924;52.122;9.952;2023-05-07T10:45:34;6.63;;;6.00;;
13704;SDS011;6924;52.122;9.952;2023-05-07T10:48:07;6.00;;;5.50;;
13704;SDS011;6924;52.122;9.952;2023-05-07T10:50:34;6.53;;;5.93;;
13704;SDS011;6924;52.122;9.952;2023-05-07T10:53:20;6.70;;;6.03;;
13704;SDS011;6924;52.122;9.952;2023-05-07T10:55:49;6.10;;;5.60;;
13704;SDS011;6924;52.122;9.952;2023-05-07T10:58:23;7.33;;;6.73;;
13704;SDS011;6924;52.122;9.952;2023-05-07T11:00:55;5.27;;;4.87;;
13704;SDS011;6924;52.122;9.952;2023-05-07T11:03:23;6.50;;;6.00;;
13704;SDS011;6924;52.122;9.952;2023-05-07T11:06:08;5.47;;;5.07;;
13704;SDS011;6924;52.122;9.952;2023-05-07T11:08:52;5.57;;;5.13;;
13704;SDS011;6924;52.122;9.952;2023-05-07T11:11:19;6.10;;;5.60;;
13704;SDS011;6924;52.122;9.952;2023-05-07T11:13:45;4.87;;;4.47;;
13704;SDS011;6924;52.122;9.952;2023-05-07T11:16:20;5.30;;;4.90;;
13704;SDS011;6924;52.122;9.952;2023-05-07T11:18:48;4.83;;;4.43;;
13704;SDS011;6924;52.122;9.952;2023-05-07T11:24:01;5.10;;;4.70;;
13704;SDS011;6924;52.122;9.952;2023-05-07T11:26:29;5.67;;;5.27;;
13704;SDS011;6924;52.122;9.952;2023-05-07T11:28:57;5.50;;;5.00;;
13704;SDS011;6924;52.122;9.952;2023-05-07T11:31:27;5.53;;;5.03;;
13704;SDS011;6924;52.122;9.952;2023-05-07T11:33:54;4.97;;;4.57;;
13704;SDS011;6924;52.122;9.952;2023-05-07T11:36:22;5.17;;;4.77;;
13704;SDS011;6924;52.122;9.952;2023-05-07T11:38:50;4.70;;;4.30;;
13704;SDS011;6924;52.122;9.952;2023-05-07T11:41:16;4.73;;;4.33;;
13704;SDS011;6924;52.122;9.952;2023-05-07T11:43:57;4.90;;;4.50;;
13704;SDS011;6924;52.122;9.952;2023-05-07T11:46:24;4.73;;;4.37;;
13704;SDS011;6924;52.122;9.952;2023-05-07T11:48:53;4.47;;;4.10;;
13704;SDS011;6924;52.122;9.952;2023-05-07T11:51:20;4.83;;;4.53;;
13704;SDS011;6924;52.122;9.952;2023-05-07T11:53:47;4.73;;;4.30;;
13704;SDS011;6924;52.122;9.952;2023-05-07T11:56:14;3.90;;;3.60;;
13704;SDS011;6924;52.122;9.952;2023-05-07T11:58:42;4.57;;;3.63;;
13704;SDS011;6924;52.122;9.952;2023-05-07T12:01:10;4.17;;;3.87;;
13704;SDS011;6924;52.122;9.952;2023-05-07T12:03:41;4.60;;;4.20;;
13704;SDS011;6924;52.122;9.952;2023-05-07T12:06:09;3.90;;;3.60;;
13704;SDS011;6924;52.122;9.952;2023-05-07T12:08:36;4.07;;;3.77;;
13704;SDS011;6924;52.122;9.952;2023-05-07T12:11:03;3.83;;;3.50;;
13704;SDS011;6924;52.122;9.952;2023-05-07T12:13:33;3.50;;;3.20;;
13704;SDS011;6924;52.122;9.952;2023-05-07T12:15:59;4.30;;;3.90;;
13704;SDS011;6924;52.122;9.952;2023-05-07T12:18:28;4.23;;;3.93;;
13704;SDS011;6924;52.122;9.952;2023-05-07T12:20:56;3.53;;;3.23;;
13704;SDS011;6924;52.122;9.952;2023-05-07T12:23:24;3.83;;;3.53;;
13704;SDS011;6924;52.122;9.952;2023-05-07T12:25:50;3.80;;;3.60;;
13704;SDS011;6924;52.122;9.952;2023-05-07T12:28:17;4.40;;;4.10;;
13704;SDS011;6924;52.122;9.952;2023-05-07T12:30:46;4.20;;;3.90;;
13704;SDS011;6924;52.122;9.952;2023-05-07T12:33:15;4.20;;;3.90;;
13704;SDS011;6924;52.122;9.952;2023-05-07T12:35:43;4.27;;;3.97;;
13704;SDS011;6924;52.122;9.952;2023-05-07T12:38:11;4.10;;;3.80;;
13704;SDS011;6924;52.122;9.952;2023-05-07T12:40:39;4.57;;;4.27;;
13704;SDS011;6924;52.122;9.952;2023-05-07T12:43:07;4.57;;;4.27;;
13704;SDS011;6924;52.122;9.952;2023-05-07T12:45:40;4.80;;;4.40;;
13704;SDS011;6924;52.122;9.952;2023-05-07T12:48:09;4.40;;;4.10;;
13704;SDS011;6924;52.122;9.952;2023-05-07T12:50:36;5.63;;;5.13;;
13704;SDS011;6924;52.122;9.952;2023-05-07T12:53:02;4.50;;;4.20;;
13704;SDS011;6924;52.122;9.952;2023-05-07T12:55:32;5.10;;;4.70;;
13704;SDS011;6924;52.122;9.952;2023-05-07T12:58:06;5.10;;;4.70;;
13704;SDS011;6924;52.122;9.952;2023-05-07T13:00:33;4.97;;;4.60;;
13704;SDS011;6924;52.122;9.952;2023-05-07T13:03:02;4.57;;;4.17;;
13704;SDS011;6924;52.122;9.952;2023-05-07T13:05:30;5.70;;;5.30;;
13704;SDS011;6924;52.122;9.952;2023-05-07T13:07:56;5.30;;;4.80;;
13704;SDS011;6924;52.122;9.952;2023-05-07T13:10:23;5.60;;;5.10;;
13704;SDS011;6924;52.122;9.952;2023-05-07T13:12:51;5.07;;;4.67;;
13704;SDS011;6924;52.122;9.952;2023-05-07T13:15:18;5.10;;;4.80;;
13704;SDS011;6924;52.122;9.952;2023-05-07T13:17:45;5.20;;;4.80;;
13704;SDS011;6924;52.122;9.952;2023-05-07T13:20:11;5.33;;;4.93;;
13704;SDS011;6924;52.122;9.952;2023-05-07T13:22:38;5.20;;;4.80;;
13704;SDS011;6924;52.122;9.952;2023-05-07T13:25:05;5.07;;;4.67;;
13704;SDS011;6924;52.122;9.952;2023-05-07T13:27:33;5.57;;;5.00;;
13704;SDS011;6924;52.122;9.952;2023-05-07T13:30:03;5.43;;;5.03;;
13704;SDS011;6924;52.122;9.952;2023-05-07T13:32:30;5.63;;;5.23;;
13704;SDS011;6924;52.122;9.952;2023-05-07T13:34:57;5.37;;;4.97;;
13704;SDS011;6924;52.122;9.952;2023-05-07T13:37:23;5.27;;;4.87;;
13704;SDS011;6924;52.122;9.952;2023-05-07T13:39:50;5.67;;;5.17;;
13704;SDS011;6924;52.122;9.952;2023-05-07T13:42:16;5.67;;;5.27;;
13704;SDS011;6924;52.122;9.952;2023-05-07T13:44:43;4.60;;;4.30;;
13704;SDS011;6924;52.122;9.952;2023-05-07T13:47:11;5.13;;;4.73;;
13704;SDS011;6924;52.122;9.952;2023-05-07T13:49:38;4.70;;;4.37;;
13704;SDS011;6924;52.122;9.952;2023-05-07T13:52:04;5.40;;;5.00;;
13704;SDS011;6924;52.122;9.952;2023-05-07T13:54:30;5.33;;;4.90;;
13704;SDS011;6924;52.122;9.952;2023-05-07T13:56:57;5.17;;;4.77;;
13704;SDS011;6924;52.122;9.952;2023-05-07T13:59:23;6.00;;;5.40;;
13704;SDS011;6924;52.122;9.952;2023-05-07T14:01:50;5.80;;;5.30;;
13704;SDS011;6924;52.122;9.952;2023-05-07T14:04:17;6.23;;;5.60;;
13704;SDS011;6924;52.122;9.952;2023-05-07T14:06:44;6.40;;;5.90;;
13704;SDS011;6924;52.122;9.952;2023-05-07T14:09:10;5.53;;;5.13;;
13704;SDS011;6924;52.122;9.952;2023-05-07T14:11:38;6.20;;;5.70;;
13704;SDS011;6924;52.122;9.952;2023-05-07T14:14:04;6.57;;;5.80;;
13704;SDS011;6924;52.122;9.952;2023-05-07T14:16:31;5.13;;;4.83;;
13704;SDS011;6924;52.122;9.952;2023-05-07T14:18:57;6.27;;;5.77;;
13704;SDS011;6924;52.122;9.952;2023-05-07T14:21:25;5.33;;;4.93;;
13704;SDS011;6924;52.122;9.952;2023-05-07T14:23:51;5.50;;;5.10;;
13704;SDS011;6924;52.122;9.952;2023-05-07T14:26:18;7.03;;;6.43;;
13704;SDS011;6924;52.122;9.952;2023-05-07T14:28:45;6.50;;;5.93;;
13704;SDS011;6924;52.122;9.952;2023-05-07T14:31:12;5.73;;;5.30;;
13704;SDS011;6924;52.122;9.952;2023-05-07T14:33:38;6.53;;;5.93;;
13704;SDS011;6924;52.122;9.952;2023-05-07T14:36:05;6.23;;;5.73;;
13704;SDS011;6924;52.122;9.952;2023-05-07T14:38:33;6.00;;;5.53;;
13704;SDS011;6924;52.122;9.952;2023-05-07T14:40:59;6.17;;;5.67;;
13704;SDS011;6924;52.122;9.952;2023-05-07T14:43:26;5.77;;;5.37;;
13704;SDS011;6924;52.122;9.952;2023-05-07T14:45:52;6.07;;;5.57;;
13704;SDS011;6924;52.122;9.952;2023-05-07T14:48:19;6.37;;;5.60;;
13704;SDS011;6924;52.122;9.952;2023-05-07T14:50:46;6.73;;;6.10;;
13704;SDS011;6924;52.122;9.952;2023-05-07T14:53:13;5.83;;;5.33;;
13704;SDS011;6924;52.122;9.952;2023-05-07T14:55:41;6.10;;;5.60;;
13704;SDS011;6924;52.122;9.952;2023-05-07T14:58:07;5.63;;;5.20;;
13704;SDS011;6924;52.122;9.952;2023-05-07T15:00:34;6.60;;;5.90;;